sensor_id;sensor_type;location;lat;lon;timestamp;P1;durP1;ratioP1;P2;durP2;ratioP2
62696;SDS011;48761;42.680;23.312;2023-09-12T00:00:50;7.68;;;3.67;;
62696;SDS011;48761;42.680;23.312;2023-09-12T00:03:23;5.82;;;4.00;;
62696;SDS011;48761;42.680;23.312;2023-09-12T00:05:59;7.20;;;3.83;;
62696;SDS011;48761;42.680;23.312;2023-09-12T00:26:49;9.02;;;4.03;;
62696;SDS011;48761;42.680;23.312;2023-09-12T00:29:16;8.63;;;4.10;;
62696;SDS011;48761;42.680;23.312;2023-09-12T00:31:41;6.60;;;4.00;;
62696;SDS011;48761;42.680;23.312;2023-09-12T00:34:07;9.52;;;4.28;;
62696;SDS011;48761;42.680;23.312;2023-09-12T00:36:33;6.57;;;3.80;;
62696;SDS011;48761;42.680;23.312;2023-09-12T00:39:01;6.95;;;3.95;;
62696;SDS011;48761;42.680;23.312;2023-09-12T00:41:34;7.63;;;3.70;;
62696;SDS011;48761;42.680;23.312;2023-09-12T00:44:09;6.97;;;4.03;;
62696;SDS011;48761;42.680;23.312;2023-09-12T00:46:42;10.13;;;4.47;;
62696;SDS011;48761;42.680;23.312;2023-09-12T00:49:18;7.63;;;3.70;;
62696;SDS011;48761;42.680;23.312;2023-09-12T00:51:54;7.00;;;3.80;;
62696;SDS011;48761;42.680;23.312;2023-09-12T00:54:22;7.13;;;3.55;;
62696;SDS011;48761;42.680;23.312;2023-09-12T00:56:54;7.10;;;3.80;;
62696;SDS011;48761;42.680;23.312;2023-09-12T00:59:35;10.00;;;3.90;;
62696;SDS011;48761;42.680;23.312;2023-09-12T01:02:48;6.78;;;3.70;;
62696;SDS011;48761;42.680;23.312;2023-09-12T01:05:20;9.60;;;3.67;;
62696;SDS011;48761;42.680;23.312;2023-09-12T01:08:11;6.80;;;3.90;;
62696;SDS011;48761;42.680;23.312;2023-09-12T01:11:09;5.72;;;3.70;;
62696;SDS011;48761;42.680;23.312;2023-09-12T01:14:14;9.48;;;3.60;;
62696;SDS011;48761;42.680;23.312;2023-09-12T01:16:42;7.70;;;3.75;;
62696;SDS011;48761;42.680;23.312;2023-09-12T01:19:20;7.18;;;3.70;;
62696;SDS011;48761;42.680;23.312;2023-09-12T01:27:50;6.03;;;3.75;;
62696;SDS011;48761;42.680;23.312;2023-09-12T01:30:44;8.25;;;3.75;;
62696;SDS011;48761;42.680;23.312;2023-09-12T01:33:41;7.43;;;3.78;;
62696;SDS011;48761;42.680;23.312;2023-09-12T01:40:08;5.45;;;3.60;;
62696;SDS011;48761;42.680;23.312;2023-09-12T01:46:26;8.82;;;3.55;;
62696;SDS011;48761;42.680;23.312;2023-09-12T01:49:31;7.38;;;3.90;;
62696;SDS011;48761;42.680;23.312;2023-09-12T01:52:07;5.88;;;3.40;;
62696;SDS011;48761;42.680;23.312;2023-09-12T01:55:17;7.95;;;3.55;;
62696;SDS011;48761;42.680;23.312;2023-09-12T02:21:22;5.60;;;3.75;;
62696;SDS011;48761;42.680;23.312;2023-09-12T02:23:49;8.20;;;4.00;;
62696;SDS011;48761;42.680;23.312;2023-09-12T02:26:15;7.75;;;4.10;;
62696;SDS011;48761;42.680;23.312;2023-09-12T02:28:45;7.53;;;4.10;;
62696;SDS011;48761;42.680;23.312;2023-09-12T02:31:11;9.55;;;4.00;;
62696;SDS011;48761;42.680;23.312;2023-09-12T02:36:25;7.38;;;4.30;;
62696;SDS011;48761;42.680;23.312;2023-09-12T02:42:25;9.10;;;4.72;;
62696;SDS011;48761;42.680;23.312;2023-09-12T02:48:03;12.63;;;6.93;;
62696;SDS011;48761;42.680;23.312;2023-09-12T02:58:39;10.68;;;4.57;;
62696;SDS011;48761;42.680;23.312;2023-09-12T03:01:13;7.75;;;3.85;;
62696;SDS011;48761;42.680;23.312;2023-09-12T03:03:40;6.80;;;3.97;;
62696;SDS011;48761;42.680;23.312;2023-09-12T03:06:07;7.25;;;4.03;;
62696;SDS011;48761;42.680;23.312;2023-09-12T03:08:39;7.07;;;3.90;;
62696;SDS011;48761;42.680;23.312;2023-09-12T03:11:08;6.35;;;3.95;;
62696;SDS011;48761;42.680;23.312;2023-09-12T03:13:39;5.95;;;3.88;;
62696;SDS011;48761;42.680;23.312;2023-09-12T03:16:20;5.80;;;4.05;;
62696;SDS011;48761;42.680;23.312;2023-09-12T03:19:03;8.00;;;4.07;;
62696;SDS011;48761;42.680;23.312;2023-09-12T03:21:37;7.10;;;3.75;;
62696;SDS011;48761;42.680;23.312;2023-09-12T03:24:07;6.97;;;4.18;;
62696;SDS011;48761;42.680;23.312;2023-09-12T03:26:46;10.55;;;4.38;;
62696;SDS011;48761;42.680;23.312;2023-09-12T03:29:26;8.43;;;4.40;;
62696;SDS011;48761;42.680;23.312;2023-09-12T03:32:24;6.13;;;4.03;;
62696;SDS011;48761;42.680;23.312;2023-09-12T03:35:07;9.40;;;4.15;;
62696;SDS011;48761;42.680;23.312;2023-09-12T03:37:34;8.65;;;4.47;;
62696;SDS011;48761;42.680;23.312;2023-09-12T03:40:00;10.82;;;5.07;;
62696;SDS011;48761;42.680;23.312;2023-09-12T03:42:27;8.70;;;4.68;;
62696;SDS011;48761;42.680;23.312;2023-09-12T03:45:00;10.60;;;4.70;;
62696;SDS011;48761;42.680;23.312;2023-09-12T03:47:28;11.48;;;4.88;;
62696;SDS011;48761;42.680;23.312;2023-09-12T03:49:57;10.18;;;4.50;;
62696;SDS011;48761;42.680;23.312;2023-09-12T03:52:36;8.20;;;4.65;;
62696;SDS011;48761;42.680;23.312;2023-09-12T03:55:16;9.57;;;4.88;;
62696;SDS011;48761;42.680;23.312;2023-09-12T03:57:56;10.27;;;4.70;;
62696;SDS011;48761;42.680;23.312;2023-09-12T04:00:29;11.73;;;4.50;;
62696;SDS011;48761;42.680;23.312;2023-09-12T04:03:40;11.30;;;5.10;;
62696;SDS011;48761;42.680;23.312;2023-09-12T04:09:40;9.90;;;5.18;;
62696;SDS011;48761;42.680;23.312;2023-09-12T04:15:43;10.20;;;5.15;;
62696;SDS011;48761;42.680;23.312;2023-09-12T04:18:17;15.30;;;6.88;;
62696;SDS011;48761;42.680;23.312;2023-09-12T04:20:43;14.80;;;6.35;;
62696;SDS011;48761;42.680;23.312;2023-09-12T04:23:12;11.38;;;5.97;;
62696;SDS011;48761;42.680;23.312;2023-09-12T04:25:41;10.43;;;5.70;;
62696;SDS011;48761;42.680;23.312;2023-09-12T04:28:07;13.98;;;6.25;;
62696;SDS011;48761;42.680;23.312;2023-09-12T04:34:00;11.35;;;6.20;;
62696;SDS011;48761;42.680;23.312;2023-09-12T05:24:08;11.52;;;5.95;;
62696;SDS011;48761;42.680;23.312;2023-09-12T05:27:14;13.75;;;6.35;;
62696;SDS011;48761;42.680;23.312;2023-09-12T05:29:40;15.02;;;7.53;;
62696;SDS011;48761;42.680;23.312;2023-09-12T05:32:06;17.23;;;8.50;;
62696;SDS011;48761;42.680;23.312;2023-09-12T05:34:32;15.55;;;6.50;;
62696;SDS011;48761;42.680;23.312;2023-09-12T05:36:58;10.82;;;6.35;;
62696;SDS011;48761;42.680;23.312;2023-09-12T05:39:24;15.32;;;7.20;;
62696;SDS011;48761;42.680;23.312;2023-09-12T05:41:49;16.83;;;6.93;;
62696;SDS011;48761;42.680;23.312;2023-09-12T05:44:15;15.98;;;7.45;;
62696;SDS011;48761;42.680;23.312;2023-09-12T05:46:41;17.38;;;8.40;;
62696;SDS011;48761;42.680;23.312;2023-09-12T05:49:07;16.95;;;8.75;;
62696;SDS011;48761;42.680;23.312;2023-09-12T05:51:33;21.38;;;9.98;;
62696;SDS011;48761;42.680;23.312;2023-09-12T05:53:59;20.65;;;9.82;;
62696;SDS011;48761;42.680;23.312;2023-09-12T05:56:25;22.88;;;10.40;;
62696;SDS011;48761;42.680;23.312;2023-09-12T05:58:51;20.77;;;11.13;;
62696;SDS011;48761;42.680;23.312;2023-09-12T06:01:16;25.30;;;11.60;;
62696;SDS011;48761;42.680;23.312;2023-09-12T06:03:42;21.95;;;10.63;;
62696;SDS011;48761;42.680;23.312;2023-09-12T06:06:08;25.77;;;10.27;;
62696;SDS011;48761;42.680;23.312;2023-09-12T06:08:34;19.48;;;9.80;;
62696;SDS011;48761;42.680;23.312;2023-09-12T06:11:00;21.70;;;9.77;;
62696;SDS011;48761;42.680;23.312;2023-09-12T06:13:26;18.85;;;9.73;;
62696;SDS011;48761;42.680;23.312;2023-09-12T06:15:52;18.15;;;9.27;;
62696;SDS011;48761;42.680;23.312;2023-09-12T06:18:18;24.23;;;10.05;;
62696;SDS011;48761;42.680;23.312;2023-09-12T06:20:44;16.67;;;9.60;;
62696;SDS011;48761;42.680;23.312;2023-09-12T06:23:10;20.13;;;9.30;;
62696;SDS011;48761;42.680;23.312;2023-09-12T06:25:36;20.50;;;9.20;;
62696;SDS011;48761;42.680;23.312;2023-09-12T06:28:02;15.60;;;8.68;;
62696;SDS011;48761;42.680;23.312;2023-09-12T06:30:28;22.65;;;9.30;;
62696;SDS011;48761;42.680;23.312;2023-09-12T06:32:54;14.05;;;8.43;;
62696;SDS011;48761;42.680;23.312;2023-09-12T06:35:20;16.38;;;8.07;;
62696;SDS011;48761;42.680;23.312;2023-09-12T06:37:45;16.52;;;7.18;;
62696;SDS011;48761;42.680;23.312;2023-09-12T06:40:11;18.40;;;8.00;;
62696;SDS011;48761;42.680;23.312;2023-09-12T06:42:37;16.08;;;7.50;;
62696;SDS011;48761;42.680;23.312;2023-09-12T06:45:03;12.77;;;7.03;;
62696;SDS011;48761;42.680;23.312;2023-09-12T06:47:30;11.02;;;6.10;;
62696;SDS011;48761;42.680;23.312;2023-09-12T06:49:56;13.65;;;6.72;;
62696;SDS011;48761;42.680;23.312;2023-09-12T06:52:22;13.60;;;6.47;;
62696;SDS011;48761;42.680;23.312;2023-09-12T06:54:48;16.42;;;8.05;;
62696;SDS011;48761;42.680;23.312;2023-09-12T06:57:14;11.40;;;6.28;;
62696;SDS011;48761;42.680;23.312;2023-09-12T06:59:40;10.60;;;6.20;;
62696;SDS011;48761;42.680;23.312;2023-09-12T07:02:06;9.55;;;6.40;;
62696;SDS011;48761;42.680;23.312;2023-09-12T07:04:32;12.32;;;6.20;;
62696;SDS011;48761;42.680;23.312;2023-09-12T07:06:58;13.95;;;5.85;;
62696;SDS011;48761;42.680;23.312;2023-09-12T07:09:27;12.88;;;5.47;;
62696;SDS011;48761;42.680;23.312;2023-09-12T07:11:53;11.05;;;5.53;;
62696;SDS011;48761;42.680;23.312;2023-09-12T07:14:18;11.55;;;5.13;;
62696;SDS011;48761;42.680;23.312;2023-09-12T07:16:44;10.85;;;5.25;;
62696;SDS011;48761;42.680;23.312;2023-09-12T07:19:10;11.50;;;5.32;;
62696;SDS011;48761;42.680;23.312;2023-09-12T07:21:36;9.35;;;5.15;;
62696;SDS011;48761;42.680;23.312;2023-09-12T07:24:02;12.43;;;5.32;;
62696;SDS011;48761;42.680;23.312;2023-09-12T07:26:28;12.88;;;5.15;;
62696;SDS011;48761;42.680;23.312;2023-09-12T07:28:54;12.35;;;5.65;;
62696;SDS011;48761;42.680;23.312;2023-09-12T07:31:20;13.45;;;6.50;;
62696;SDS011;48761;42.680;23.312;2023-09-12T07:33:46;13.10;;;5.97;;
62696;SDS011;48761;42.680;23.312;2023-09-12T07:36:12;7.97;;;4.75;;
62696;SDS011;48761;42.680;23.312;2023-09-12T07:38:37;11.63;;;5.47;;
62696;SDS011;48761;42.680;23.312;2023-09-12T07:41:03;16.52;;;5.55;;
62696;SDS011;48761;42.680;23.312;2023-09-12T07:43:29;10.63;;;4.57;;
62696;SDS011;48761;42.680;23.312;2023-09-12T07:45:56;7.85;;;4.68;;
62696;SDS011;48761;42.680;23.312;2023-09-12T07:48:22;11.85;;;4.97;;
62696;SDS011;48761;42.680;23.312;2023-09-12T07:50:48;10.32;;;5.40;;
62696;SDS011;48761;42.680;23.312;2023-09-12T07:53:14;13.32;;;5.32;;
62696;SDS011;48761;42.680;23.312;2023-09-12T07:55:40;8.90;;;5.10;;
62696;SDS011;48761;42.680;23.312;2023-09-12T07:58:07;18.00;;;5.10;;
62696;SDS011;48761;42.680;23.312;2023-09-12T08:00:35;12.32;;;4.20;;
62696;SDS011;48761;42.680;23.312;2023-09-12T08:03:02;8.75;;;4.55;;
62696;SDS011;48761;42.680;23.312;2023-09-12T08:05:29;12.77;;;4.80;;
62696;SDS011;48761;42.680;23.312;2023-09-12T08:07:54;10.57;;;5.18;;
62696;SDS011;48761;42.680;23.312;2023-09-12T08:10:20;11.90;;;4.80;;
62696;SDS011;48761;42.680;23.312;2023-09-12T08:12:46;11.27;;;5.10;;
62696;SDS011;48761;42.680;23.312;2023-09-12T08:15:12;11.75;;;5.20;;
62696;SDS011;48761;42.680;23.312;2023-09-12T08:17:38;13.05;;;4.95;;
62696;SDS011;48761;42.680;23.312;2023-09-12T08:20:04;9.93;;;4.38;;
62696;SDS011;48761;42.680;23.312;2023-09-12T08:22:31;12.68;;;4.20;;
62696;SDS011;48761;42.680;23.312;2023-09-12T08:24:57;9.88;;;4.97;;
62696;SDS011;48761;42.680;23.312;2023-09-12T08:27:23;14.57;;;6.00;;
62696;SDS011;48761;42.680;23.312;2023-09-12T08:29:48;10.98;;;6.05;;
62696;SDS011;48761;42.680;23.312;2023-09-12T08:32:14;13.20;;;6.20;;
62696;SDS011;48761;42.680;23.312;2023-09-12T08:34:40;12.57;;;5.65;;
62696;SDS011;48761;42.680;23.312;2023-09-12T08:37:06;13.18;;;5.47;;
62696;SDS011;48761;42.680;23.312;2023-09-12T08:39:42;13.73;;;5.30;;
62696;SDS011;48761;42.680;23.312;2023-09-12T08:42:13;14.18;;;5.82;;
62696;SDS011;48761;42.680;23.312;2023-09-12T08:44:41;13.75;;;6.40;;
62696;SDS011;48761;42.680;23.312;2023-09-12T08:47:11;13.73;;;5.47;;
62696;SDS011;48761;42.680;23.312;2023-09-12T08:49:37;10.63;;;5.40;;
62696;SDS011;48761;42.680;23.312;2023-09-12T08:52:04;13.20;;;5.60;;
62696;SDS011;48761;42.680;23.312;2023-09-12T08:54:33;13.57;;;4.95;;
62696;SDS011;48761;42.680;23.312;2023-09-12T08:57:03;9.38;;;4.70;;
62696;SDS011;48761;42.680;23.312;2023-09-12T08:59:33;11.75;;;4.75;;
62696;SDS011;48761;42.680;23.312;2023-09-12T09:02:00;10.02;;;4.40;;
62696;SDS011;48761;42.680;23.312;2023-09-12T09:04:28;15.73;;;6.47;;
62696;SDS011;48761;42.680;23.312;2023-09-12T09:06:56;12.30;;;5.05;;
62696;SDS011;48761;42.680;23.312;2023-09-12T09:09:24;11.43;;;4.78;;
62696;SDS011;48761;42.680;23.312;2023-09-12T09:11:51;8.75;;;4.78;;
62696;SDS011;48761;42.680;23.312;2023-09-12T09:14:17;10.18;;;4.35;;
62696;SDS011;48761;42.680;23.312;2023-09-12T09:16:43;12.68;;;4.68;;
62696;SDS011;48761;42.680;23.312;2023-09-12T09:19:09;11.93;;;4.25;;
62696;SDS011;48761;42.680;23.312;2023-09-12T09:21:35;9.30;;;4.25;;
62696;SDS011;48761;42.680;23.312;2023-09-12T09:24:04;14.48;;;4.97;;
62696;SDS011;48761;42.680;23.312;2023-09-12T09:29:18;12.13;;;4.35;;
62696;SDS011;48761;42.680;23.312;2023-09-12T09:31:46;7.35;;;4.30;;
62696;SDS011;48761;42.680;23.312;2023-09-12T09:34:17;8.30;;;4.20;;
62696;SDS011;48761;42.680;23.312;2023-09-12T09:36:51;14.80;;;5.05;;
62696;SDS011;48761;42.680;23.312;2023-09-12T09:39:18;9.02;;;3.60;;
62696;SDS011;48761;42.680;23.312;2023-09-12T09:41:48;9.13;;;3.55;;
62696;SDS011;48761;42.680;23.312;2023-09-12T09:44:15;8.68;;;3.70;;
62696;SDS011;48761;42.680;23.312;2023-09-12T09:46:42;7.80;;;3.45;;
62696;SDS011;48761;42.680;23.312;2023-09-12T09:49:15;11.50;;;3.70;;
62696;SDS011;48761;42.680;23.312;2023-09-12T09:51:44;11.93;;;3.65;;
62696;SDS011;48761;42.680;23.312;2023-09-12T09:54:11;7.65;;;2.97;;
62696;SDS011;48761;42.680;23.312;2023-09-12T09:56:52;8.23;;;3.08;;
62696;SDS011;48761;42.680;23.312;2023-09-12T09:59:26;14.13;;;3.15;;
62696;SDS011;48761;42.680;23.312;2023-09-12T10:01:56;7.93;;;3.63;;
62696;SDS011;48761;42.680;23.312;2023-09-12T10:06:57;11.90;;;3.17;;
62696;SDS011;48761;42.680;23.312;2023-09-12T10:09:27;7.68;;;3.50;;
62696;SDS011;48761;42.680;23.312;2023-09-12T10:11:55;11.70;;;3.53;;
62696;SDS011;48761;42.680;23.312;2023-09-12T10:14:23;11.57;;;3.28;;
62696;SDS011;48761;42.680;23.312;2023-09-12T10:16:52;8.52;;;2.83;;
62696;SDS011;48761;42.680;23.312;2023-09-12T10:19:26;11.00;;;3.53;;
62696;SDS011;48761;42.680;23.312;2023-09-12T10:22:09;7.57;;;3.47;;
62696;SDS011;48761;42.680;23.312;2023-09-12T10:24:43;5.68;;;3.00;;
62696;SDS011;48761;42.680;23.312;2023-09-12T10:27:09;7.35;;;2.83;;
62696;SDS011;48761;42.680;23.312;2023-09-12T10:29:38;6.93;;;3.05;;
62696;SDS011;48761;42.680;23.312;2023-09-12T10:32:04;8.98;;;3.40;;
62696;SDS011;48761;42.680;23.312;2023-09-12T10:34:30;8.15;;;4.75;;
62696;SDS011;48761;42.680;23.312;2023-09-12T10:36:58;15.35;;;3.90;;
62696;SDS011;48761;42.680;23.312;2023-09-12T10:39:24;5.45;;;3.03;;
62696;SDS011;48761;42.680;23.312;2023-09-12T10:41:52;9.45;;;3.70;;
62696;SDS011;48761;42.680;23.312;2023-09-12T10:44:19;14.98;;;5.82;;
62696;SDS011;48761;42.680;23.312;2023-09-12T10:46:46;9.98;;;5.05;;
62696;SDS011;48761;42.680;23.312;2023-09-12T10:49:13;10.20;;;3.65;;
62696;SDS011;48761;42.680;23.312;2023-09-12T10:51:40;5.93;;;3.00;;
62696;SDS011;48761;42.680;23.312;2023-09-12T10:54:08;8.70;;;3.22;;
62696;SDS011;48761;42.680;23.312;2023-09-12T10:56:38;8.75;;;3.63;;
62696;SDS011;48761;42.680;23.312;2023-09-12T11:01:30;10.57;;;3.30;;
62696;SDS011;48761;42.680;23.312;2023-09-12T11:03:57;8.07;;;3.22;;
62696;SDS011;48761;42.680;23.312;2023-09-12T11:06:28;7.85;;;3.15;;
62696;SDS011;48761;42.680;23.312;2023-09-12T11:11:39;9.50;;;4.38;;
62696;SDS011;48761;42.680;23.312;2023-09-12T11:14:05;10.10;;;4.38;;
62696;SDS011;48761;42.680;23.312;2023-09-12T11:16:32;7.70;;;4.35;;
62696;SDS011;48761;42.680;23.312;2023-09-12T11:19:14;5.35;;;3.53;;
62696;SDS011;48761;42.680;23.312;2023-09-12T11:21:43;10.90;;;7.63;;
62696;SDS011;48761;42.680;23.312;2023-09-12T11:24:14;19.30;;;7.75;;
62696;SDS011;48761;42.680;23.312;2023-09-12T11:27:00;8.52;;;4.53;;
62696;SDS011;48761;42.680;23.312;2023-09-12T11:29:35;8.85;;;4.97;;
62696;SDS011;48761;42.680;23.312;2023-09-12T11:32:02;8.25;;;3.10;;
62696;SDS011;48761;42.680;23.312;2023-09-12T11:34:30;6.13;;;3.17;;
62696;SDS011;48761;42.680;23.312;2023-09-12T11:37:06;10.23;;;3.63;;
62696;SDS011;48761;42.680;23.312;2023-09-12T11:39:33;8.90;;;3.30;;
62696;SDS011;48761;42.680;23.312;2023-09-12T11:42:01;6.15;;;3.28;;
62696;SDS011;48761;42.680;23.312;2023-09-12T11:44:28;7.97;;;3.30;;
62696;SDS011;48761;42.680;23.312;2023-09-12T11:46:55;5.30;;;3.10;;
62696;SDS011;48761;42.680;23.312;2023-09-12T11:49:22;11.35;;;3.70;;
62696;SDS011;48761;42.680;23.312;2023-09-12T11:51:49;10.60;;;4.47;;
62696;SDS011;48761;42.680;23.312;2023-09-12T11:54:20;6.20;;;3.17;;
62696;SDS011;48761;42.680;23.312;2023-09-12T11:56:50;9.23;;;3.70;;
62696;SDS011;48761;42.680;23.312;2023-09-12T11:59:17;7.22;;;3.78;;
62696;SDS011;48761;42.680;23.312;2023-09-12T12:01:44;9.93;;;3.45;;
62696;SDS011;48761;42.680;23.312;2023-09-12T12:04:11;4.60;;;2.95;;
62696;SDS011;48761;42.680;23.312;2023-09-12T12:06:37;9.15;;;3.53;;
62696;SDS011;48761;42.680;23.312;2023-09-12T12:09:03;6.43;;;3.50;;
62696;SDS011;48761;42.680;23.312;2023-09-12T12:11:29;7.28;;;3.38;;
62696;SDS011;48761;42.680;23.312;2023-09-12T12:13:55;11.73;;;3.70;;
62696;SDS011;48761;42.680;23.312;2023-09-12T12:16:21;6.93;;;3.42;;
62696;SDS011;48761;42.680;23.312;2023-09-12T12:18:47;8.80;;;4.03;;
62696;SDS011;48761;42.680;23.312;2023-09-12T12:21:13;8.70;;;3.65;;
62696;SDS011;48761;42.680;23.312;2023-09-12T12:23:39;7.82;;;3.20;;
62696;SDS011;48761;42.680;23.312;2023-09-12T12:26:08;9.90;;;3.13;;
62696;SDS011;48761;42.680;23.312;2023-09-12T12:28:35;8.10;;;3.55;;
62696;SDS011;48761;42.680;23.312;2023-09-12T12:31:01;9.40;;;3.60;;
62696;SDS011;48761;42.680;23.312;2023-09-12T12:33:27;6.30;;;3.33;;
62696;SDS011;48761;42.680;23.312;2023-09-12T12:35:59;6.65;;;3.42;;
62696;SDS011;48761;42.680;23.312;2023-09-12T12:38:25;11.98;;;3.50;;
62696;SDS011;48761;42.680;23.312;2023-09-12T12:40:51;6.43;;;3.83;;
62696;SDS011;48761;42.680;23.312;2023-09-12T12:43:17;7.75;;;3.50;;
62696;SDS011;48761;42.680;23.312;2023-09-12T12:45:51;12.10;;;3.40;;
62696;SDS011;48761;42.680;23.312;2023-09-12T12:48:28;10.70;;;3.88;;
62696;SDS011;48761;42.680;23.312;2023-09-12T12:50:55;8.88;;;3.35;;
62696;SDS011;48761;42.680;23.312;2023-09-12T12:53:40;9.90;;;3.22;;
62696;SDS011;48761;42.680;23.312;2023-09-12T12:56:07;8.25;;;3.60;;
62696;SDS011;48761;42.680;23.312;2023-09-12T12:58:34;6.13;;;3.22;;
62696;SDS011;48761;42.680;23.312;2023-09-12T13:00:59;10.23;;;3.92;;
62696;SDS011;48761;42.680;23.312;2023-09-12T13:03:25;9.45;;;3.78;;
62696;SDS011;48761;42.680;23.312;2023-09-12T13:05:51;9.38;;;3.30;;
62696;SDS011;48761;42.680;23.312;2023-09-12T13:08:18;9.27;;;3.20;;
62696;SDS011;48761;42.680;23.312;2023-09-12T13:10:44;8.88;;;3.30;;
62696;SDS011;48761;42.680;23.312;2023-09-12T13:13:10;11.35;;;3.40;;
62696;SDS011;48761;42.680;23.312;2023-09-12T13:15:36;7.28;;;2.97;;
62696;SDS011;48761;42.680;23.312;2023-09-12T13:18:02;4.88;;;3.20;;
62696;SDS011;48761;42.680;23.312;2023-09-12T13:20:28;7.72;;;3.33;;
62696;SDS011;48761;42.680;23.312;2023-09-12T13:22:54;9.57;;;3.15;;
62696;SDS011;48761;42.680;23.312;2023-09-12T13:25:20;10.23;;;3.78;;
62696;SDS011;48761;42.680;23.312;2023-09-12T13:27:46;10.73;;;3.60;;
62696;SDS011;48761;42.680;23.312;2023-09-12T13:30:12;10.30;;;4.32;;
62696;SDS011;48761;42.680;23.312;2023-09-12T13:32:38;6.88;;;3.40;;
62696;SDS011;48761;42.680;23.312;2023-09-12T13:35:04;9.23;;;4.00;;
62696;SDS011;48761;42.680;23.312;2023-09-12T13:37:30;12.25;;;3.58;;
62696;SDS011;48761;42.680;23.312;2023-09-12T13:39:56;8.13;;;3.63;;
62696;SDS011;48761;42.680;23.312;2023-09-12T13:42:22;11.25;;;4.20;;
62696;SDS011;48761;42.680;23.312;2023-09-12T13:44:48;8.57;;;3.33;;
62696;SDS011;48761;42.680;23.312;2023-09-12T13:47:14;9.85;;;3.58;;
62696;SDS011;48761;42.680;23.312;2023-09-12T13:49:40;6.57;;;3.47;;
62696;SDS011;48761;42.680;23.312;2023-09-12T13:52:06;7.80;;;3.33;;
62696;SDS011;48761;42.680;23.312;2023-09-12T13:54:32;7.38;;;3.22;;
62696;SDS011;48761;42.680;23.312;2023-09-12T13:56:58;7.72;;;3.42;;
62696;SDS011;48761;42.680;23.312;2023-09-12T13:59:24;7.70;;;3.55;;
62696;SDS011;48761;42.680;23.312;2023-09-12T14:01:50;9.32;;;3.65;;
62696;SDS011;48761;42.680;23.312;2023-09-12T14:04:17;7.72;;;3.30;;
62696;SDS011;48761;42.680;23.312;2023-09-12T14:06:43;8.32;;;3.83;;
62696;SDS011;48761;42.680;23.312;2023-09-12T14:09:09;8.43;;;3.33;;
62696;SDS011;48761;42.680;23.312;2023-09-12T14:11:35;7.40;;;3.70;;
62696;SDS011;48761;42.680;23.312;2023-09-12T14:14:01;8.30;;;3.45;;
62696;SDS011;48761;42.680;23.312;2023-09-12T14:16:28;9.57;;;3.78;;
62696;SDS011;48761;42.680;23.312;2023-09-12T14:18:54;8.43;;;3.80;;
62696;SDS011;48761;42.680;23.312;2023-09-12T14:21:20;8.85;;;3.47;;
62696;SDS011;48761;42.680;23.312;2023-09-12T14:23:46;6.50;;;3.50;;
62696;SDS011;48761;42.680;23.312;2023-09-12T14:26:12;7.88;;;3.53;;
62696;SDS011;48761;42.680;23.312;2023-09-12T14:28:38;10.00;;;3.50;;
62696;SDS011;48761;42.680;23.312;2023-09-12T14:31:04;8.88;;;3.42;;
62696;SDS011;48761;42.680;23.312;2023-09-12T14:33:30;6.85;;;3.03;;
62696;SDS011;48761;42.680;23.312;2023-09-12T14:35:56;5.57;;;3.40;;
62696;SDS011;48761;42.680;23.312;2023-09-12T14:38:22;7.10;;;3.50;;
62696;SDS011;48761;42.680;23.312;2023-09-12T14:40:47;5.68;;;2.75;;
62696;SDS011;48761;42.680;23.312;2023-09-12T14:43:13;8.48;;;2.85;;
62696;SDS011;48761;42.680;23.312;2023-09-12T14:45:39;6.88;;;3.00;;
62696;SDS011;48761;42.680;23.312;2023-09-12T14:48:06;8.02;;;3.15;;
62696;SDS011;48761;42.680;23.312;2023-09-12T14:50:32;13.77;;;3.63;;
62696;SDS011;48761;42.680;23.312;2023-09-12T14:52:58;6.20;;;3.03;;
62696;SDS011;48761;42.680;23.312;2023-09-12T14:55:23;6.35;;;3.13;;
62696;SDS011;48761;42.680;23.312;2023-09-12T14:57:49;9.52;;;3.60;;
62696;SDS011;48761;42.680;23.312;2023-09-12T15:00:15;9.68;;;3.53;;
62696;SDS011;48761;42.680;23.312;2023-09-12T15:02:41;6.07;;;3.15;;
62696;SDS011;48761;42.680;23.312;2023-09-12T15:05:07;6.78;;;3.30;;
62696;SDS011;48761;42.680;23.312;2023-09-12T15:07:33;11.85;;;3.60;;
62696;SDS011;48761;42.680;23.312;2023-09-12T15:09:59;7.70;;;3.03;;
62696;SDS011;48761;42.680;23.312;2023-09-12T15:12:25;7.43;;;3.00;;
62696;SDS011;48761;42.680;23.312;2023-09-12T15:14:51;8.90;;;3.22;;
62696;SDS011;48761;42.680;23.312;2023-09-12T15:17:17;8.63;;;3.45;;
62696;SDS011;48761;42.680;23.312;2023-09-12T15:19:43;6.07;;;3.50;;
62696;SDS011;48761;42.680;23.312;2023-09-12T15:22:09;6.20;;;3.20;;
62696;SDS011;48761;42.680;23.312;2023-09-12T15:24:35;10.57;;;3.45;;
62696;SDS011;48761;42.680;23.312;2023-09-12T15:27:01;6.90;;;2.83;;
62696;SDS011;48761;42.680;23.312;2023-09-12T15:29:27;11.60;;;3.58;;
62696;SDS011;48761;42.680;23.312;2023-09-12T15:31:53;7.30;;;3.50;;
62696;SDS011;48761;42.680;23.312;2023-09-12T15:34:19;8.57;;;3.42;;
62696;SDS011;48761;42.680;23.312;2023-09-12T15:36:45;6.70;;;2.85;;
62696;SDS011;48761;42.680;23.312;2023-09-12T15:39:12;7.20;;;3.28;;
62696;SDS011;48761;42.680;23.312;2023-09-12T15:41:38;8.60;;;3.30;;
62696;SDS011;48761;42.680;23.312;2023-09-12T15:44:05;5.45;;;3.20;;
62696;SDS011;48761;42.680;23.312;2023-09-12T15:46:31;7.40;;;3.08;;
62696;SDS011;48761;42.680;23.312;2023-09-12T15:48:57;9.75;;;3.53;;
62696;SDS011;48761;42.680;23.312;2023-09-12T15:51:23;13.27;;;3.70;;
62696;SDS011;48761;42.680;23.312;2023-09-12T15:53:49;6.57;;;3.30;;
62696;SDS011;48761;42.680;23.312;2023-09-12T15:56:15;8.52;;;3.30;;
62696;SDS011;48761;42.680;23.312;2023-09-12T15:58:43;8.13;;;3.38;;
62696;SDS011;48761;42.680;23.312;2023-09-12T16:01:11;10.43;;;3.70;;
62696;SDS011;48761;42.680;23.312;2023-09-12T16:03:37;8.95;;;4.45;;
62696;SDS011;48761;42.680;23.312;2023-09-12T16:06:03;7.18;;;3.67;;
62696;SDS011;48761;42.680;23.312;2023-09-12T16:08:30;7.88;;;3.92;;
62696;SDS011;48761;42.680;23.312;2023-09-12T16:10:56;13.95;;;3.63;;
62696;SDS011;48761;42.680;23.312;2023-09-12T16:13:21;9.25;;;3.47;;
62696;SDS011;48761;42.680;23.312;2023-09-12T16:15:47;7.75;;;3.80;;
62696;SDS011;48761;42.680;23.312;2023-09-12T16:18:13;9.30;;;4.38;;
62696;SDS011;48761;42.680;23.312;2023-09-12T16:20:39;9.20;;;4.38;;
62696;SDS011;48761;42.680;23.312;2023-09-12T16:23:05;7.15;;;3.80;;
62696;SDS011;48761;42.680;23.312;2023-09-12T16:25:32;11.07;;;3.88;;
62696;SDS011;48761;42.680;23.312;2023-09-12T16:27:58;7.90;;;4.47;;
62696;SDS011;48761;42.680;23.312;2023-09-12T16:30:24;9.05;;;4.03;;
62696;SDS011;48761;42.680;23.312;2023-09-12T16:32:50;12.80;;;4.28;;
62696;SDS011;48761;42.680;23.312;2023-09-12T16:35:16;13.38;;;4.38;;
62696;SDS011;48761;42.680;23.312;2023-09-12T16:37:42;14.05;;;4.63;;
62696;SDS011;48761;42.680;23.312;2023-09-12T16:40:11;12.43;;;4.68;;
62696;SDS011;48761;42.680;23.312;2023-09-12T16:42:38;9.55;;;4.57;;
62696;SDS011;48761;42.680;23.312;2023-09-12T16:45:07;11.38;;;5.50;;
62696;SDS011;48761;42.680;23.312;2023-09-12T16:47:34;10.45;;;5.63;;
62696;SDS011;48761;42.680;23.312;2023-09-12T16:50:01;12.13;;;4.93;;
62696;SDS011;48761;42.680;23.312;2023-09-12T16:52:29;9.63;;;4.60;;
62696;SDS011;48761;42.680;23.312;2023-09-12T16:54:55;18.27;;;5.22;;
62696;SDS011;48761;42.680;23.312;2023-09-12T16:57:21;17.05;;;6.10;;
62696;SDS011;48761;42.680;23.312;2023-09-12T16:59:47;14.98;;;5.47;;